Time;durP1;ratioP1;P1;durP2;ratioP2;P2;SDS_P1;SDS_P2;PMS_P1;PMS_P2;Temp;Humidity;BMP_temperature;BMP_pressure;BME280_temperature;BME280_humidity;BME280_pressure;Samples;Min_cycle;Max_cycle;Signal;HPM_P1;HPM_P2
2022/03/31 00:00:54;;;;;;;0.80;0.80;;;;;;;;;;5027197;28;20209;-68
2022/03/31 00:03:42;;;;;;;1.83;1.00;;;;;;;;;;5024641;28;20218;-68
2022/03/31 00:06:29;;;;;;;0.80;0.80;;;;;;;;;;5023852;28;20216;-67
2022/03/31 00:09:18;;;;;;;0.80;0.80;;;;;;;;;;5024392;28;20211;-68
2022/03/31 00:12:06;;;;;;;1.10;1.00;;;;;;;;;;5024809;28;20205;-68
2022/03/31 00:14:53;;;;;;;0.80;0.80;;;;;;;;;;5027874;28;20214;-67
2022/03/31 00:17:41;;;;;;;1.00;1.00;;;;;;;;;;5022096;28;20253;-67
2022/03/31 00:32:30;;;;;;;0.77;0.77;;;;;;;;;;5021210;28;20225;-68
2022/03/31 00:35:19;;;;;;;0.90;0.90;;;;;;;;;;5024435;28;20225;-67
2022/03/31 00:38:06;;;;;;;0.87;0.87;;;;;;;;;;5023828;28;20215;-68
2022/03/31 00:40:53;;;;;;;0.93;0.93;;;;;;;;;;5025054;28;20210;-68
2022/03/31 00:43:41;;;;;;;0.80;0.80;;;;;;;;;;5026903;28;20218;-67
2022/03/31 00:46:28;;;;;;;0.90;0.90;;;;;;;;;;5025691;28;20230;-67
2022/03/31 00:49:15;;;;;;;0.70;0.70;;;;;;;;;;5022745;28;20579;-68
2022/03/31 00:52:04;;;;;;;1.07;1.07;;;;;;;;;;5025535;28;20258;-68
2022/03/31 00:54:52;;;;;;;0.97;0.97;;;;;;;;;;5027776;28;20233;-67
2022/03/31 00:57:39;;;;;;;0.80;0.80;;;;;;;;;;5024098;28;20207;-68
2022/03/31 01:00:30;;;;;;;1.00;1.00;;;;;;;;;;5022021;28;20284;-73
2022/03/31 01:03:18;;;;;;;0.60;0.60;;;;;;;;;;5023198;28;20284;-67
2022/03/31 01:06:05;;;;;;;0.80;0.80;;;;;;;;;;5019917;28;20206;-68
2022/03/31 01:08:54;;;;;;;0.50;0.50;;;;;;;;;;5017498;28;20558;-68
2022/03/31 01:11:42;;;;;;;0.90;0.90;;;;;;;;;;5020149;28;20218;-67
2022/03/31 01:14:30;;;;;;;0.80;0.80;;;;;;;;;;5024506;28;20248;-68
2022/03/31 01:17:18;;;;;;;0.80;0.80;;;;;;;;;;5022720;28;20665;-67
2022/03/31 01:20:08;;;;;;;0.97;0.97;;;;;;;;;;5023430;28;20347;-68
2022/03/31 01:22:58;;;;;;;0.80;0.80;;;;;;;;;;5020172;28;20215;-68
2022/03/31 01:25:46;;;;;;;0.60;0.60;;;;;;;;;;5023622;28;20237;-68
2022/03/31 01:28:36;;;;;;;1.00;1.00;;;;;;;;;;5021561;28;20218;-67
2022/03/31 01:31:23;;;;;;;0.90;0.90;;;;;;;;;;5026592;28;20212;-68
2022/03/31 01:34:10;;;;;;;0.60;0.60;;;;;;;;;;5018148;28;20235;-67
2022/03/31 01:36:58;;;;;;;0.77;0.77;;;;;;;;;;5024593;28;20659;-68
2022/03/31 01:39:45;;;;;;;0.73;0.73;;;;;;;;;;5022683;28;20296;-68
2022/03/31 01:42:34;;;;;;;1.40;0.87;;;;;;;;;;5022113;28;20208;-68
2022/03/31 01:45:22;;;;;;;0.90;0.90;;;;;;;;;;5021028;28;20205;-68
2022/03/31 01:48:09;;;;;;;0.90;0.90;;;;;;;;;;5024028;28;20732;-68
2022/03/31 01:50:57;;;;;;;0.90;0.90;;;;;;;;;;5021155;28;20209;-68
2022/03/31 01:53:44;;;;;;;0.90;0.90;;;;;;;;;;5018914;28;20313;-68
2022/03/31 01:56:31;;;;;;;0.77;0.77;;;;;;;;;;5025421;28;20300;-68
2022/03/31 01:59:20;;;;;;;0.90;0.90;;;;;;;;;;5019571;28;20211;-68
2022/03/31 02:02:07;;;;;;;0.97;0.97;;;;;;;;;;5023203;28;20215;-68
2022/03/31 02:04:54;;;;;;;0.70;0.70;;;;;;;;;;5021474;28;20208;-68
2022/03/31 02:07:42;;;;;;;0.80;0.80;;;;;;;;;;5021763;28;20582;-68
2022/03/31 02:10:29;;;;;;;0.77;0.77;;;;;;;;;;5020729;28;20245;-68
2022/03/31 02:13:16;;;;;;;1.27;0.70;;;;;;;;;;5021917;28;20226;-68
2022/03/31 02:16:05;;;;;;;0.77;0.77;;;;;;;;;;5022179;28;20679;-68
2022/03/31 02:18:53;;;;;;;0.87;0.87;;;;;;;;;;5024640;28;20224;-68
2022/03/31 02:21:41;;;;;;;0.77;0.77;;;;;;;;;;5017475;28;20340;-68
2022/03/31 02:24:29;;;;;;;0.77;0.77;;;;;;;;;;5019874;28;20201;-68
2022/03/31 02:27:16;;;;;;;0.80;0.80;;;;;;;;;;5022224;28;20216;-67
2022/03/31 02:30:05;;;;;;;0.80;0.80;;;;;;;;;;5023111;28;20549;-67
2022/03/31 02:32:53;;;;;;;0.93;0.93;;;;;;;;;;5020809;28;20291;-67
2022/03/31 02:35:40;;;;;;;0.83;0.83;;;;;;;;;;5021436;28;20217;-67
2022/03/31 02:38:27;;;;;;;0.97;0.97;;;;;;;;;;5023688;28;20317;-67
2022/03/31 02:41:14;;;;;;;0.90;0.90;;;;;;;;;;5019535;28;20272;-67
2022/03/31 02:44:01;;;;;;;2.90;1.00;;;;;;;;;;5020487;28;20291;-69
2022/03/31 02:46:48;;;;;;;1.07;1.07;;;;;;;;;;5020830;28;20299;-67
2022/03/31 02:49:36;;;;;;;1.10;1.00;;;;;;;;;;5019644;28;20339;-67
2022/03/31 02:52:23;;;;;;;1.20;1.20;;;;;;;;;;5024017;28;20560;-68
2022/03/31 02:55:24;;;;;;;1.17;1.17;;;;;;;;;;5019683;28;20570;-68
2022/03/31 02:58:11;;;;;;;1.40;1.40;;;;;;;;;;5019662;28;20676;-68
2022/03/31 03:00:58;;;;;;;1.20;1.20;;;;;;;;;;5024347;28;20678;-68
2022/03/31 03:03:45;;;;;;;1.30;1.30;;;;;;;;;;5018442;28;20242;-68
2022/03/31 03:06:33;;;;;;;1.23;1.23;;;;;;;;;;5025944;28;20304;-67
2022/03/31 03:09:21;;;;;;;1.63;1.57;;;;;;;;;;5022006;28;20275;-67
2022/03/31 03:12:10;;;;;;;1.70;1.60;;;;;;;;;;5022529;28;20209;-67
2022/03/31 03:14:57;;;;;;;1.50;1.50;;;;;;;;;;5017406;28;20598;-67
2022/03/31 03:17:45;;;;;;;1.53;1.43;;;;;;;;;;5025406;28;20685;-67
2022/03/31 03:20:32;;;;;;;1.73;1.63;;;;;;;;;;5018497;28;20217;-67
2022/03/31 03:23:20;;;;;;;1.33;1.23;;;;;;;;;;5023494;28;20264;-68
2022/03/31 03:26:08;;;;;;;1.60;1.50;;;;;;;;;;5021970;28;20205;-68
2022/03/31 03:28:55;;;;;;;1.40;1.40;;;;;;;;;;5024034;28;20218;-68
2022/03/31 03:31:43;;;;;;;1.37;1.37;;;;;;;;;;5026831;28;20276;-68
2022/03/31 03:34:30;;;;;;;1.73;1.63;;;;;;;;;;5026509;28;20225;-68
2022/03/31 03:37:17;;;;;;;1.50;1.47;;;;;;;;;;5022502;28;20267;-68
2022/03/31 03:40:07;;;;;;;1.67;1.53;;;;;;;;;;5027990;28;20264;-68
2022/03/31 03:42:54;;;;;;;1.40;1.30;;;;;;;;;;5025434;28;20216;-67
2022/03/31 03:45:42;;;;;;;1.47;1.47;;;;;;;;;;5027573;28;20208;-67
2022/03/31 03:48:29;;;;;;;1.60;1.50;;;;;;;;;;5022250;28;20633;-68
2022/03/31 03:51:16;;;;;;;2.37;2.27;;;;;;;;;;5023001;28;20359;-68
2022/03/31 03:54:04;;;;;;;3.50;3.20;;;;;;;;;;5023061;28;20288;-68
2022/03/31 03:56:52;;;;;;;3.50;3.23;;;;;;;;;;5026797;28;20232;-68
2022/03/31 03:59:39;;;;;;;3.70;3.40;;;;;;;;;;5019805;28;20294;-68
2022/03/31 04:02:26;;;;;;;3.63;3.33;;;;;;;;;;5024474;28;20247;-68
2022/03/31 04:05:13;;;;;;;3.20;3.00;;;;;;;;;;5023271;28;20228;-68
2022/03/31 04:08:00;;;;;;;3.37;3.07;;;;;;;;;;5021143;28;20247;-67
2022/03/31 04:10:47;;;;;;;3.43;3.13;;;;;;;;;;5019489;28;20426;-67
2022/03/31 04:13:35;;;;;;;3.20;3.00;;;;;;;;;;5021570;28;20299;-68
2022/03/31 04:16:22;;;;;;;3.60;3.30;;;;;;;;;;5022425;28;20237;-68
2022/03/31 04:19:09;;;;;;;2.93;2.73;;;;;;;;;;5022460;28;20249;-68
2022/03/31 04:21:56;;;;;;;2.90;2.70;;;;;;;;;;5021288;28;20237;-69
2022/03/31 04:24:43;;;;;;;2.93;2.73;;;;;;;;;;5022327;28;20735;-67
2022/03/31 04:27:30;;;;;;;2.97;2.60;;;;;;;;;;5026938;28;20693;-68
2022/03/31 04:30:21;;;;;;;3.07;2.60;;;;;;;;;;5024061;28;20205;-68
2022/03/31 04:33:08;;;;;;;2.60;2.40;;;;;;;;;;5025546;28;20206;-68
2022/03/31 04:35:55;;;;;;;2.70;2.50;;;;;;;;;;5023808;28;20605;-69
2022/03/31 04:38:42;;;;;;;2.60;2.40;;;;;;;;;;5020819;28;20372;-68
2022/03/31 04:41:29;;;;;;;2.97;2.77;;;;;;;;;;5024869;28;20291;-68
2022/03/31 04:44:15;;;;;;;2.43;2.23;;;;;;;;;;5022989;28;20658;-68
2022/03/31 04:47:04;;;;;;;2.40;2.20;;;;;;;;;;5019742;28;20685;-68
2022/03/31 04:49:51;;;;;;;2.20;2.10;;;;;;;;;;5025218;28;20217;-68
2022/03/31 04:52:38;;;;;;;2.20;2.10;;;;;;;;;;5026181;28;20257;-68
2022/03/31 04:55:25;;;;;;;2.30;2.20;;;;;;;;;;5022329;28;20264;-67
2022/03/31 04:58:12;;;;;;;2.50;2.30;;;;;;;;;;5022065;28;20209;-68
2022/03/31 05:01:00;;;;;;;2.40;2.20;;;;;;;;;;5022519;28;20256;-67
2022/03/31 05:03:48;;;;;;;3.53;2.83;;;;;;;;;;5021035;28;20242;-67
2022/03/31 05:06:35;;;;;;;2.90;2.70;;;;;;;;;;5024587;28;20216;-67
2022/03/31 05:09:22;;;;;;;2.90;2.70;;;;;;;;;;5021158;28;20241;-67
2022/03/31 05:12:12;;;;;;;4.30;2.70;;;;;;;;;;5024400;28;20299;-68
2022/03/31 05:14:59;;;;;;;3.23;2.50;;;;;;;;;;5022342;28;20320;-67
2022/03/31 05:17:46;;;;;;;3.10;2.90;;;;;;;;;;5025189;28;20653;-67
2022/03/31 05:20:35;;;;;;;3.67;2.77;;;;;;;;;;5023007;28;20208;-68
2022/03/31 05:23:22;;;;;;;4.10;2.60;;;;;;;;;;5020875;28;20281;-68
2022/03/31 05:26:09;;;;;;;2.67;2.47;;;;;;;;;;5020948;28;20619;-67
2022/03/31 05:28:56;;;;;;;3.60;2.70;;;;;;;;;;5021679;28;20612;-67
2022/03/31 05:31:43;;;;;;;2.73;2.53;;;;;;;;;;5024435;28;20297;-67
2022/03/31 05:34:30;;;;;;;2.87;2.57;;;;;;;;;;5022311;28;20221;-68
2022/03/31 05:37:18;;;;;;;2.67;2.47;;;;;;;;;;5019569;28;20572;-68
2022/03/31 05:40:08;;;;;;;3.03;2.50;;;;;;;;;;5024557;28;20209;-67
2022/03/31 05:42:55;;;;;;;2.63;2.40;;;;;;;;;;5018320;28;20289;-68
2022/03/31 05:45:42;;;;;;;2.30;2.10;;;;;;;;;;5020620;28;20718;-68
2022/03/31 05:48:29;;;;;;;2.70;2.50;;;;;;;;;;5022598;28;20297;-68
2022/03/31 05:51:17;;;;;;;2.60;2.40;;;;;;;;;;5027248;28;20611;-68
2022/03/31 05:54:05;;;;;;;2.23;2.13;;;;;;;;;;5020670;28;20255;-68
2022/03/31 05:56:52;;;;;;;2.70;2.17;;;;;;;;;;5024792;28;20272;-69
2022/03/31 05:59:39;;;;;;;2.27;2.07;;;;;;;;;;5024334;28;20230;-68
2022/03/31 06:02:26;;;;;;;2.30;2.20;;;;;;;;;;5022603;28;20219;-67
2022/03/31 06:05:14;;;;;;;2.00;1.90;;;;;;;;;;5024035;28;20236;-68
2022/03/31 06:08:01;;;;;;;2.10;1.90;;;;;;;;;;5018133;28;20239;-67
2022/03/31 06:10:50;;;;;;;2.00;1.90;;;;;;;;;;5019712;28;20368;-68
2022/03/31 06:13:37;;;;;;;1.80;1.70;;;;;;;;;;5019281;28;20225;-68
2022/03/31 06:16:24;;;;;;;2.53;1.83;;;;;;;;;;5022789;28;20242;-68
2022/03/31 06:19:11;;;;;;;1.80;1.70;;;;;;;;;;5024174;28;20306;-68
2022/03/31 06:21:58;;;;;;;2.40;1.67;;;;;;;;;;5023052;28;20208;-69
2022/03/31 06:24:45;;;;;;;1.50;1.40;;;;;;;;;;5016595;28;20355;-68
2022/03/31 06:27:33;;;;;;;1.83;1.73;;;;;;;;;;5021806;28;20288;-69
2022/03/31 06:30:20;;;;;;;1.70;1.60;;;;;;;;;;5019745;28;20253;-68
2022/03/31 06:33:08;;;;;;;1.43;1.33;;;;;;;;;;5022826;28;20297;-68
2022/03/31 06:35:55;;;;;;;1.30;1.20;;;;;;;;;;5023804;28;20625;-68
2022/03/31 06:38:43;;;;;;;1.30;1.30;;;;;;;;;;5017817;28;21071;-68
2022/03/31 06:41:30;;;;;;;1.50;1.40;;;;;;;;;;5024529;28;20210;-68
2022/03/31 06:44:21;;;;;;;2.37;1.47;;;;;;;;;;5024016;28;20280;-69
2022/03/31 06:47:08;;;;;;;1.27;1.13;;;;;;;;;;5022694;28;20231;-68
2022/03/31 06:49:55;;;;;;;2.35;1.40;;;;;;;;;;5021717;28;20232;-67
2022/03/31 06:52:41;;;;;;;1.60;1.33;;;;;;;;;;5021687;28;20302;-66
2022/03/31 06:55:29;;;;;;;3.40;1.52;;;;;;;;;;5023767;28;20335;-65
2022/03/31 06:58:16;;;;;;;1.23;1.13;;;;;;;;;;5023668;28;20197;-66
2022/03/31 07:01:05;;;;;;;1.35;1.30;;;;;;;;;;5027158;28;20201;-66
2022/03/31 07:03:52;;;;;;;1.80;1.02;;;;;;;;;;5023025;28;20266;-67
2022/03/31 07:06:39;;;;;;;1.83;1.73;;;;;;;;;;5020537;28;20593;-66
2022/03/31 07:09:26;;;;;;;1.50;1.40;;;;;;;;;;5020168;28;20345;-66
2022/03/31 07:12:13;;;;;;;2.28;1.52;;;;;;;;;;5022350;28;20270;-65
2022/03/31 07:15:00;;;;;;;1.50;1.40;;;;;;;;;;5023520;28;20228;-66
2022/03/31 07:17:49;;;;;;;1.98;1.77;;;;;;;;;;5021850;28;20221;-66
2022/03/31 07:20:36;;;;;;;2.50;1.50;;;;;;;;;;5021583;28;20208;-66
2022/03/31 07:23:25;;;;;;;1.23;1.23;;;;;;;;;;5022774;28;20208;-66
2022/03/31 07:26:12;;;;;;;1.40;1.30;;;;;;;;;;5019537;28;20213;-66
2022/03/31 07:28:59;;;;;;;1.80;1.70;;;;;;;;;;5024452;28;20270;-66
2022/03/31 07:31:46;;;;;;;1.58;1.48;;;;;;;;;;5026827;28;20284;-66
2022/03/31 07:34:35;;;;;;;2.00;1.80;;;;;;;;;;5025828;28;20205;-67
2022/03/31 07:37:22;;;;;;;1.52;1.30;;;;;;;;;;5027421;28;20823;-66
2022/03/31 07:40:10;;;;;;;2.10;1.35;;;;;;;;;;5023446;28;20224;-67
2022/03/31 07:42:57;;;;;;;2.47;1.80;;;;;;;;;;5024888;28;20295;-67
2022/03/31 07:45:46;;;;;;;2.40;1.55;;;;;;;;;;5023967;28;20228;-66
2022/03/31 07:48:33;;;;;;;2.05;1.48;;;;;;;;;;5024436;28;20266;-66
2022/03/31 07:51:22;;;;;;;1.88;1.77;;;;;;;;;;5023194;28;20248;-67
2022/03/31 07:54:08;;;;;;;1.88;1.67;;;;;;;;;;5020507;28;20232;-66
2022/03/31 07:56:55;;;;;;;1.50;1.40;;;;;;;;;;5026580;28;20724;-65
2022/03/31 07:59:43;;;;;;;2.20;1.52;;;;;;;;;;5023341;28;20291;-69
2022/03/31 08:02:30;;;;;;;2.60;1.60;;;;;;;;;;5026494;28;20822;-65
2022/03/31 08:05:18;;;;;;;1.95;1.48;;;;;;;;;;5024713;28;20212;-65
2022/03/31 08:08:07;;;;;;;2.20;1.60;;;;;;;;;;5024044;28;20635;-66
2022/03/31 08:10:54;;;;;;;2.03;1.60;;;;;;;;;;5020904;28;20208;-65
2022/03/31 08:13:41;;;;;;;1.80;1.70;;;;;;;;;;5023427;28;20709;-65
2022/03/31 08:16:28;;;;;;;2.45;1.67;;;;;;;;;;5024537;28;20229;-64
2022/03/31 08:19:16;;;;;;;1.58;1.48;;;;;;;;;;5022519;28;20248;-66
2022/03/31 08:22:04;;;;;;;2.13;1.90;;;;;;;;;;5020488;28;20202;-65
2022/03/31 08:24:52;;;;;;;4.70;1.95;;;;;;;;;;5020977;28;20205;-66
2022/03/31 08:27:39;;;;;;;2.60;1.65;;;;;;;;;;5023167;28;20247;-66
2022/03/31 08:30:28;;;;;;;3.13;1.90;;;;;;;;;;5024553;28;20295;-67
2022/03/31 08:33:15;;;;;;;1.65;1.55;;;;;;;;;;5022746;28;20732;-66
2022/03/31 08:36:01;;;;;;;2.53;1.70;;;;;;;;;;5019838;28;20240;-66
2022/03/31 08:38:48;;;;;;;2.63;1.58;;;;;;;;;;5024721;28;20214;-66
2022/03/31 08:41:37;;;;;;;1.70;1.60;;;;;;;;;;5026475;28;20274;-67
2022/03/31 08:44:25;;;;;;;1.70;1.60;;;;;;;;;;5026327;28;20242;-66
2022/03/31 08:47:13;;;;;;;2.28;1.65;;;;;;;;;;5025364;28;20250;-66
2022/03/31 08:49:59;;;;;;;2.00;1.88;;;;;;;;;;5019199;28;20338;-67
2022/03/31 08:52:47;;;;;;;2.85;1.80;;;;;;;;;;5020037;28;20272;-66
2022/03/31 08:55:34;;;;;;;1.60;1.40;;;;;;;;;;5027146;28;20712;-66
2022/03/31 08:58:22;;;;;;;3.15;2.03;;;;;;;;;;5025594;28;20559;-66
2022/03/31 09:01:09;;;;;;;1.60;1.33;;;;;;;;;;5027113;28;20289;-66
2022/03/31 09:03:56;;;;;;;2.25;1.60;;;;;;;;;;5027115;28;20314;-66
2022/03/31 09:06:43;;;;;;;1.77;1.67;;;;;;;;;;5019639;28;20251;-65
2022/03/31 09:09:30;;;;;;;1.70;1.60;;;;;;;;;;5026401;28;20267;-66
2022/03/31 09:12:17;;;;;;;1.80;1.50;;;;;;;;;;5021885;28;20547;-66
2022/03/31 09:15:15;;;;;;;1.45;1.35;;;;;;;;;;5029057;28;20231;-66
2022/03/31 09:18:02;;;;;;;1.42;1.33;;;;;;;;;;5019580;28;20253;-66
2022/03/31 09:20:52;;;;;;;1.63;1.53;;;;;;;;;;5022351;28;20212;-66
2022/03/31 09:23:41;;;;;;;1.42;1.33;;;;;;;;;;5020747;28;20661;-66
2022/03/31 09:26:31;;;;;;;1.40;1.33;;;;;;;;;;5022792;28;20288;-67
2022/03/31 09:29:19;;;;;;;1.17;1.10;;;;;;;;;;5023542;28;20572;-66
2022/03/31 09:32:09;;;;;;;1.17;1.13;;;;;;;;;;5021689;28;20295;-66
2022/03/31 09:35:06;;;;;;;1.40;1.30;;;;;;;;;;5022222;28;20199;-66
2022/03/31 09:37:55;;;;;;;1.17;1.17;;;;;;;;;;5021487;28;20299;-66
2022/03/31 09:40:42;;;;;;;1.27;1.17;;;;;;;;;;5019645;28;20210;-66
2022/03/31 09:43:38;;;;;;;1.03;1.03;;;;;;;;;;5022277;28;20305;-66
2022/03/31 09:46:27;;;;;;;1.13;0.90;;;;;;;;;;5024013;28;20235;-66
2022/03/31 09:49:17;;;;;;;1.58;1.45;;;;;;;;;;5023061;28;20203;-67
2022/03/31 09:52:07;;;;;;;1.13;1.13;;;;;;;;;;5024189;28;20263;-67
2022/03/31 09:54:55;;;;;;;1.27;0.98;;;;;;;;;;5021195;28;20229;-67
2022/03/31 09:57:42;;;;;;;1.60;0.93;;;;;;;;;;5028245;28;20247;-66
2022/03/31 10:00:30;;;;;;;0.80;0.80;;;;;;;;;;5020011;28;20219;-66
2022/03/31 10:03:17;;;;;;;1.00;1.00;;;;;;;;;;5019257;28;20216;-66
2022/03/31 10:06:06;;;;;;;0.87;0.87;;;;;;;;;;5021280;28;20830;-66
2022/03/31 10:08:57;;;;;;;0.80;0.80;;;;;;;;;;5018131;28;20560;-66
2022/03/31 10:11:45;;;;;;;0.90;0.90;;;;;;;;;;5026038;28;20219;-67
2022/03/31 10:14:43;;;;;;;0.70;0.63;;;;;;;;;;5020366;28;20728;-67
2022/03/31 10:17:32;;;;;;;1.03;0.93;;;;;;;;;;5023549;28;20230;-67
2022/03/31 10:20:21;;;;;;;0.97;0.80;;;;;;;;;;5021768;28;20315;-67
2022/03/31 10:26:23;;;;;;;1.60;0.83;;;;;;;;;;5022104;28;20220;-67
2022/03/31 10:29:12;;;;;;;0.70;0.70;;;;;;;;;;5018033;28;20264;-67
2022/03/31 10:32:00;;;;;;;0.80;0.40;;;;;;;;;;5021280;28;20215;-67
2022/03/31 10:34:49;;;;;;;0.70;0.70;;;;;;;;;;5022093;28;20303;-67
2022/03/31 10:37:38;;;;;;;1.47;0.70;;;;;;;;;;5027618;28;20233;-67
2022/03/31 10:40:32;;;;;;;0.60;0.60;;;;;;;;;;5021918;28;20206;-67
2022/03/31 10:43:21;;;;;;;0.83;0.50;;;;;;;;;;5016886;28;20296;-68
2022/03/31 10:46:17;;;;;;;0.70;0.70;;;;;;;;;;5025634;28;20306;-67
2022/03/31 10:49:07;;;;;;;0.60;0.60;;;;;;;;;;5021301;28;20279;-67
2022/03/31 10:51:54;;;;;;;0.60;0.60;;;;;;;;;;5016599;28;20236;-67
2022/03/31 10:54:41;;;;;;;0.60;0.60;;;;;;;;;;5019645;28;20213;-67
2022/03/31 10:57:40;;;;;;;0.67;0.60;;;;;;;;;;5019688;28;20228;-67
2022/03/31 11:00:27;;;;;;;1.30;0.50;;;;;;;;;;5018971;28;20265;-67
2022/03/31 11:03:17;;;;;;;0.60;0.60;;;;;;;;;;5020655;28;20211;-67
2022/03/31 11:06:07;;;;;;;0.60;0.50;;;;;;;;;;5020639;28;20671;-67
2022/03/31 11:08:54;;;;;;;0.43;0.43;;;;;;;;;;5020648;28;20207;-69
2022/03/31 11:11:41;;;;;;;0.93;0.80;;;;;;;;;;5019109;28;20214;-67
2022/03/31 11:14:30;;;;;;;0.87;0.50;;;;;;;;;;5017955;28;20290;-67
2022/03/31 11:17:18;;;;;;;0.50;0.50;;;;;;;;;;5023540;28;20238;-68
2022/03/31 11:20:14;;;;;;;0.80;0.60;;;;;;;;;;5026745;28;20205;-68
2022/03/31 11:23:06;;;;;;;0.50;0.50;;;;;;;;;;5022576;28;20669;-68
2022/03/31 11:25:54;;;;;;;0.37;0.37;;;;;;;;;;5015690;28;20229;-68
2022/03/31 11:28:41;;;;;;;0.47;0.47;;;;;;;;;;5025599;28;20291;-68
2022/03/31 11:31:30;;;;;;;0.50;0.50;;;;;;;;;;5020018;28;20302;-67
2022/03/31 11:34:18;;;;;;;0.43;0.43;;;;;;;;;;5021104;28;20656;-69
2022/03/31 11:37:05;;;;;;;0.30;0.30;;;;;;;;;;5021242;28;20290;-67
2022/03/31 11:39:52;;;;;;;0.30;0.30;;;;;;;;;;5022024;28;20207;-67
2022/03/31 11:42:44;;;;;;;0.50;0.50;;;;;;;;;;5025655;28;20355;-68
2022/03/31 11:45:36;;;;;;;0.40;0.40;;;;;;;;;;5024641;28;20304;-68
2022/03/31 11:48:31;;;;;;;0.40;0.40;;;;;;;;;;5026854;28;20743;-67
2022/03/31 11:51:18;;;;;;;0.40;0.40;;;;;;;;;;5026528;28;20254;-67
2022/03/31 11:54:08;;;;;;;0.57;0.57;;;;;;;;;;5021814;28;20228;-67
2022/03/31 11:57:03;;;;;;;0.60;0.60;;;;;;;;;;5024392;28;20238;-69
2022/03/31 11:59:50;;;;;;;0.53;0.53;;;;;;;;;;5022238;28;20230;-67
2022/03/31 12:02:37;;;;;;;0.40;0.40;;;;;;;;;;5023618;28;20757;-67
2022/03/31 12:05:25;;;;;;;0.50;0.50;;;;;;;;;;5026323;28;20603;-68
2022/03/31 12:08:12;;;;;;;0.60;0.47;;;;;;;;;;5025759;28;20216;-67
2022/03/31 12:11:00;;;;;;;0.40;0.40;;;;;;;;;;5026469;28;20261;-68
2022/03/31 12:13:49;;;;;;;0.53;0.40;;;;;;;;;;5022216;28;20203;-68
2022/03/31 12:16:43;;;;;;;0.50;0.50;;;;;;;;;;5026284;28;20268;-68
2022/03/31 12:19:38;;;;;;;0.60;0.60;;;;;;;;;;5025189;28;20206;-68
2022/03/31 12:22:35;;;;;;;0.70;0.50;;;;;;;;;;5022951;28;20611;-68
2022/03/31 12:25:43;;;;;;;0.50;0.50;;;;;;;;;;5027574;28;20239;-68
2022/03/31 12:28:41;;;;;;;0.50;0.50;;;;;;;;;;5022306;28;20322;-68
2022/03/31 12:31:29;;;;;;;0.43;0.43;;;;;;;;;;5019614;28;20273;-68
2022/03/31 12:34:16;;;;;;;1.23;0.50;;;;;;;;;;5022368;28;20211;-68
2022/03/31 12:37:04;;;;;;;1.50;0.40;;;;;;;;;;5022690;28;20303;-68
2022/03/31 12:39:52;;;;;;;0.63;0.53;;;;;;;;;;5022555;28;20206;-68
2022/03/31 12:42:50;;;;;;;1.53;0.50;;;;;;;;;;5026657;28;20238;-68
2022/03/31 12:45:37;;;;;;;0.43;0.43;;;;;;;;;;5024495;28;20214;-68
2022/03/31 12:48:26;;;;;;;0.40;0.40;;;;;;;;;;5026599;28;20220;-67
2022/03/31 12:51:13;;;;;;;0.40;0.20;;;;;;;;;;5019617;28;20210;-68
2022/03/31 12:54:00;;;;;;;0.50;0.43;;;;;;;;;;5017257;28;20388;-68
2022/03/31 12:56:50;;;;;;;1.90;0.37;;;;;;;;;;5021089;28;20276;-69
2022/03/31 12:59:36;;;;;;;0.50;0.50;;;;;;;;;;5024349;28;20264;-68
2022/03/31 13:02:23;;;;;;;0.30;0.30;;;;;;;;;;5024299;28;20209;-68
2022/03/31 13:05:10;;;;;;;0.47;0.47;;;;;;;;;;5021161;28;20242;-68
2022/03/31 13:07:58;;;;;;;0.40;0.40;;;;;;;;;;5025849;28;20307;-68
2022/03/31 13:10:45;;;;;;;0.40;0.40;;;;;;;;;;5025520;28;20210;-68
2022/03/31 13:13:33;;;;;;;0.50;0.40;;;;;;;;;;5020441;28;20213;-68
2022/03/31 13:16:20;;;;;;;0.27;0.27;;;;;;;;;;5022283;28;20292;-68
2022/03/31 13:19:08;;;;;;;0.80;0.50;;;;;;;;;;5020954;28;20205;-68
2022/03/31 13:21:55;;;;;;;0.43;0.40;;;;;;;;;;5016669;28;20684;-68
2022/03/31 13:24:42;;;;;;;0.40;0.40;;;;;;;;;;5023580;28;20201;-68
2022/03/31 13:27:29;;;;;;;0.40;0.40;;;;;;;;;;5024188;28;20278;-68
2022/03/31 13:30:17;;;;;;;0.50;0.50;;;;;;;;;;5022316;28;20218;-69
2022/03/31 13:33:04;;;;;;;1.57;0.40;;;;;;;;;;5026196;28;21155;-68
2022/03/31 13:35:51;;;;;;;0.43;0.30;;;;;;;;;;5019412;28;20924;-68
2022/03/31 13:38:38;;;;;;;0.30;0.30;;;;;;;;;;5023891;28;20237;-68
2022/03/31 13:41:27;;;;;;;0.47;0.40;;;;;;;;;;5021999;28;20335;-68
2022/03/31 13:44:15;;;;;;;0.20;0.20;;;;;;;;;;5025124;28;20212;-70
2022/03/31 13:47:04;;;;;;;0.40;0.40;;;;;;;;;;5020860;28;20229;-68
2022/03/31 13:49:51;;;;;;;0.30;0.30;;;;;;;;;;5024965;28;20213;-68
2022/03/31 13:52:38;;;;;;;0.40;0.40;;;;;;;;;;5025452;28;20260;-68
2022/03/31 13:55:25;;;;;;;0.30;0.30;;;;;;;;;;5022075;28;20287;-68
2022/03/31 14:01:18;;;;;;;0.20;0.20;;;;;;;;;;5021125;28;20219;-68
2022/03/31 14:04:07;;;;;;;0.30;0.30;;;;;;;;;;5021899;28;20420;-68
2022/03/31 14:06:55;;;;;;;0.23;0.23;;;;;;;;;;5023465;28;20220;-68
2022/03/31 14:09:42;;;;;;;0.40;0.40;;;;;;;;;;5025031;28;20259;-67
2022/03/31 14:12:29;;;;;;;0.93;0.30;;;;;;;;;;5025671;28;20239;-68
2022/03/31 14:15:16;;;;;;;0.73;0.40;;;;;;;;;;5022908;28;20263;-68
2022/03/31 14:18:04;;;;;;;0.30;0.30;;;;;;;;;;5023673;28;20231;-67
2022/03/31 14:20:53;;;;;;;0.40;0.30;;;;;;;;;;5022962;28;20259;-68
2022/03/31 14:23:41;;;;;;;0.20;0.20;;;;;;;;;;5026293;28;20226;-68
2022/03/31 14:26:29;;;;;;;0.20;0.20;;;;;;;;;;5022537;28;20278;-68
2022/03/31 14:29:17;;;;;;;0.30;0.30;;;;;;;;;;5019514;28;20288;-68
2022/03/31 14:32:04;;;;;;;0.30;0.30;;;;;;;;;;5023758;28;20689;-71
2022/03/31 14:34:51;;;;;;;0.30;0.23;;;;;;;;;;5024576;28;20228;-68
2022/03/31 14:37:39;;;;;;;0.20;0.20;;;;;;;;;;5017528;28;20277;-68
2022/03/31 14:40:26;;;;;;;0.20;0.20;;;;;;;;;;5020902;28;20346;-67
2022/03/31 14:43:13;;;;;;;0.20;0.20;;;;;;;;;;5019890;28;20549;-68
2022/03/31 14:46:00;;;;;;;0.40;0.37;;;;;;;;;;5021930;28;20294;-68
2022/03/31 14:48:48;;;;;;;0.40;0.40;;;;;;;;;;5025592;28;20354;-69
2022/03/31 14:51:35;;;;;;;0.30;0.30;;;;;;;;;;5025752;28;20216;-68
2022/03/31 14:54:24;;;;;;;0.33;0.30;;;;;;;;;;5025548;28;20208;-68
2022/03/31 14:57:11;;;;;;;0.40;0.40;;;;;;;;;;5023998;28;20229;-67
2022/03/31 14:59:58;;;;;;;0.20;0.20;;;;;;;;;;5018084;28;20932;-68
2022/03/31 15:02:45;;;;;;;0.57;0.30;;;;;;;;;;5017177;28;20265;-68
2022/03/31 15:05:32;;;;;;;0.20;0.20;;;;;;;;;;5020035;28;20281;-68
2022/03/31 15:08:19;;;;;;;0.30;0.30;;;;;;;;;;5019790;28;20262;-68
2022/03/31 15:17:28;;;;;;;0.20;0.20;;;;;;;;;;5019921;28;20246;-68
2022/03/31 15:20:15;;;;;;;0.20;0.20;;;;;;;;;;5026635;28;20229;-68
2022/03/31 15:23:02;;;;;;;0.30;0.30;;;;;;;;;;5025618;28;20650;-68
2022/03/31 15:25:50;;;;;;;0.40;0.40;;;;;;;;;;5026325;28;20297;-67
2022/03/31 15:28:38;;;;;;;0.80;0.30;;;;;;;;;;5024302;28;20255;-67
2022/03/31 15:31:26;;;;;;;0.30;0.30;;;;;;;;;;5022737;28;20280;-67
2022/03/31 15:34:14;;;;;;;0.20;0.20;;;;;;;;;;5023710;28;20210;-67
2022/03/31 15:37:01;;;;;;;0.23;0.23;;;;;;;;;;5024145;28;20203;-67
2022/03/31 15:39:48;;;;;;;0.20;0.20;;;;;;;;;;5021595;28;20205;-69
2022/03/31 15:42:35;;;;;;;0.20;0.20;;;;;;;;;;5026754;28;20264;-68
2022/03/31 15:45:25;;;;;;;0.20;0.20;;;;;;;;;;5024827;28;20282;-68
2022/03/31 15:48:12;;;;;;;0.20;0.20;;;;;;;;;;5029395;28;20259;-68
2022/03/31 15:51:00;;;;;;;0.20;0.20;;;;;;;;;;5027862;28;20214;-68
2022/03/31 15:53:47;;;;;;;0.20;0.20;;;;;;;;;;5023946;28;20257;-68
2022/03/31 15:56:34;;;;;;;0.40;0.40;;;;;;;;;;5025055;28;20288;-68
2022/03/31 15:59:21;;;;;;;0.20;0.20;;;;;;;;;;5025930;28;20209;-68
2022/03/31 16:02:10;;;;;;;0.40;0.40;;;;;;;;;;5020831;28;20202;-68
2022/03/31 16:04:57;;;;;;;0.40;0.20;;;;;;;;;;5025339;28;20215;-68
2022/03/31 16:07:44;;;;;;;0.37;0.30;;;;;;;;;;5029718;28;20206;-68
2022/03/31 16:10:31;;;;;;;0.30;0.30;;;;;;;;;;5024027;28;20292;-68
2022/03/31 16:13:18;;;;;;;0.20;0.20;;;;;;;;;;5021166;28;20239;-68
2022/03/31 16:16:06;;;;;;;0.30;0.30;;;;;;;;;;5027055;28;20629;-67
2022/03/31 16:18:54;;;;;;;0.30;0.30;;;;;;;;;;5021136;28;20320;-68
2022/03/31 16:21:41;;;;;;;0.47;0.47;;;;;;;;;;5023016;28;20291;-68
2022/03/31 16:24:28;;;;;;;0.37;0.37;;;;;;;;;;5021023;28;20610;-68
2022/03/31 16:27:16;;;;;;;0.20;0.20;;;;;;;;;;5020484;28;20237;-67
2022/03/31 16:30:03;;;;;;;0.27;0.27;;;;;;;;;;5024970;28;20250;-68
2022/03/31 16:32:50;;;;;;;0.20;0.20;;;;;;;;;;5021658;28;20272;-68
2022/03/31 16:35:39;;;;;;;1.47;0.20;;;;;;;;;;5024609;28;20234;-68
2022/03/31 16:38:25;;;;;;;0.30;0.30;;;;;;;;;;5023196;28;20229;-68
2022/03/31 16:41:13;;;;;;;0.20;0.20;;;;;;;;;;5023515;28;20284;-68
2022/03/31 16:44:00;;;;;;;0.40;0.40;;;;;;;;;;5025579;28;20218;-68
2022/03/31 16:46:47;;;;;;;0.27;0.27;;;;;;;;;;5024729;28;20238;-68
2022/03/31 16:49:34;;;;;;;0.30;0.30;;;;;;;;;;5025233;28;20643;-68
2022/03/31 16:52:23;;;;;;;1.60;0.40;;;;;;;;;;5022762;28;20224;-67
2022/03/31 16:55:10;;;;;;;2.47;0.30;;;;;;;;;;5025388;28;20235;-68
2022/03/31 16:57:57;;;;;;;0.43;0.43;;;;;;;;;;5024933;28;20351;-68
2022/03/31 17:00:44;;;;;;;0.30;0.30;;;;;;;;;;5022039;28;20744;-67
2022/03/31 17:03:31;;;;;;;0.20;0.20;;;;;;;;;;5022733;28;20209;-68
2022/03/31 17:06:18;;;;;;;0.43;0.37;;;;;;;;;;5025713;28;20225;-67
2022/03/31 17:09:06;;;;;;;0.33;0.30;;;;;;;;;;5024294;28;20577;-67
2022/03/31 17:11:53;;;;;;;1.10;0.30;;;;;;;;;;5022783;28;20211;-68